Time;durP1;ratioP1;P1;durP2;ratioP2;P2;SDS_P1;SDS_P2;PMS_P1;PMS_P2;Temp;Humidity;BMP_temperature;BMP_pressure;BME280_temperature;BME280_humidity;BME280_pressure;Samples;Min_cycle;Max_cycle;Signal;HPM_P1;HPM_P2
2021/12/06 00:01:44;;;;;;;0.00;0.00;;;3.90;73.40;;;;;;5054347;28;20048;-77
2021/12/06 00:04:18;;;;;;;0.00;0.00;;;3.90;73.50;;;;;;5054308;28;20033;-77
2021/12/06 00:06:50;;;;;;;0.00;0.00;;;4.00;73.60;;;;;;5055067;28;20029;-78
2021/12/06 00:09:19;;;;;;;0.00;0.00;;;4.00;73.30;;;;;;5055039;28;20033;-78
2021/12/06 00:11:45;;;;;;;0.00;0.00;;;4.00;73.30;;;;;;5054379;28;20024;-78
2021/12/06 00:14:11;;;;;;;0.00;0.00;;;4.00;73.20;;;;;;5054957;28;20033;-77
2021/12/06 00:16:37;;;;;;;0.00;0.00;;;4.00;73.60;;;;;;5054518;28;20032;-77
2021/12/06 00:19:04;;;;;;;0.00;0.00;;;4.10;73.60;;;;;;5054643;28;20047;-79
2021/12/06 00:21:31;;;;;;;0.00;0.00;;;4.00;73.40;;;;;;5054546;28;20021;-79
2021/12/06 00:23:56;;;;;;;0.00;0.00;;;4.00;73.50;;;;;;5054403;28;20028;-77
2021/12/06 00:26:23;;;;;;;0.00;0.00;;;4.10;73.50;;;;;;5053891;28;20477;-79
2021/12/06 00:28:56;;;;;;;0.00;0.00;;;4.10;73.50;;;;;;5054040;28;20032;-78
2021/12/06 00:31:22;;;;;;;0.00;0.00;;;4.10;73.20;;;;;;5054070;28;20025;-78
2021/12/06 00:33:54;;;;;;;0.00;0.00;;;4.10;73.20;;;;;;5054364;28;20025;-77
2021/12/06 00:36:27;;;;;;;0.00;0.00;;;4.10;73.10;;;;;;5054620;28;20428;-77
2021/12/06 00:38:54;;;;;;;0.00;0.00;;;4.10;73.20;;;;;;5053405;28;20033;-79
2021/12/06 00:41:20;;;;;;;0.00;0.00;;;4.10;73.50;;;;;;5053755;28;20094;-78
2021/12/06 00:43:46;;;;;;;0.00;0.00;;;4.10;73.50;;;;;;5054810;28;20032;-78
2021/12/06 00:46:12;;;;;;;0.00;0.00;;;4.00;73.30;;;;;;5053963;28;20029;-78
2021/12/06 00:48:38;;;;;;;0.00;0.00;;;4.00;73.30;;;;;;5053701;28;20354;-76
2021/12/06 00:51:04;;;;;;;0.00;0.00;;;4.00;73.30;;;;;;5055261;28;20427;-76
2021/12/06 00:53:30;;;;;;;0.00;0.00;;;4.00;73.40;;;;;;5053117;28;20479;-78
2021/12/06 00:55:56;;;;;;;0.00;0.00;;;3.90;73.60;;;;;;5054815;28;20025;-78
2021/12/06 00:58:22;;;;;;;0.00;0.00;;;4.00;73.60;;;;;;5035941;28;20075;-78
2021/12/06 01:00:51;;;;;;;0.00;0.00;;;4.00;73.60;;;;;;5054792;28;20025;-78
2021/12/06 01:03:21;;;;;;;0.00;0.00;;;4.00;73.60;;;;;;5054626;28;20037;-78
2021/12/06 01:05:47;;;;;;;0.00;0.00;;;4.00;73.50;;;;;;5054174;28;20033;-78
2021/12/06 01:08:13;;;;;;;0.00;0.00;;;4.00;73.50;;;;;;5054192;28;20512;-77
2021/12/06 01:10:40;;;;;;;0.00;0.00;;;4.00;73.70;;;;;;5053742;28;20060;-79
2021/12/06 01:13:06;;;;;;;0.00;0.00;;;4.00;73.80;;;;;;5052846;28;20055;-78
2021/12/06 01:15:33;;;;;;;0.00;0.00;;;4.00;73.80;;;;;;5054324;28;20051;-79
2021/12/06 01:18:01;;;;;;;0.00;0.00;;;4.10;73.80;;;;;;5053256;28;20061;-78
2021/12/06 01:20:31;;;;;;;0.00;0.00;;;4.10;73.60;;;;;;5052387;28;20068;-78
2021/12/06 01:23:04;;;;;;;0.00;0.00;;;4.20;73.70;;;;;;5052687;28;20055;-78
2021/12/06 01:39:17;;;;;;;0.00;0.00;;;4.20;73.30;;;;;;5056066;28;20471;-78
2021/12/06 01:42:04;;;;;;;0.00;0.00;;;4.10;73.20;;;;;;5054262;28;20357;-77
2021/12/06 01:44:34;;;;;;;0.00;0.00;;;4.00;73.30;;;;;;5053831;28;20029;-78
2021/12/06 01:47:01;;;;;;;0.00;0.00;;;4.00;73.60;;;;;;5052782;28;20025;-77
2021/12/06 01:49:35;;;;;;;0.00;0.00;;;4.00;73.60;;;;;;5053894;28;20061;-78
2021/12/06 01:52:06;;;;;;;0.00;0.00;;;3.90;73.90;;;;;;5054521;28;20079;-77
2021/12/06 01:54:33;;;;;;;0.00;0.00;;;3.90;74.10;;;;;;5054008;28;20428;-78
2021/12/06 01:56:58;;;;;;;0.00;0.00;;;3.90;74.00;;;;;;5052883;28;20033;-77
2021/12/06 01:59:26;;;;;;;0.00;0.00;;;3.90;74.10;;;;;;5053611;28;20118;-78
2021/12/06 02:01:53;;;;;;;0.00;0.00;;;3.90;74.30;;;;;;5052285;28;20502;-77
2021/12/06 02:04:19;;;;;;;0.00;0.00;;;3.90;74.20;;;;;;5053481;28;20055;-79
2021/12/06 02:06:46;;;;;;;0.00;0.00;;;3.80;74.10;;;;;;5056189;28;20029;-77
2021/12/06 02:09:15;;;;;;;0.00;0.00;;;3.80;74.40;;;;;;5057930;28;20095;-77
2021/12/06 02:11:43;;;;;;;0.00;0.00;;;3.80;74.60;;;;;;5057360;28;20031;-78
2021/12/06 02:16:58;;;;;;;0.00;0.00;;;3.80;74.70;;;;;;5057401;28;20033;-77
2021/12/06 02:19:30;;;;;;;0.00;0.00;;;3.80;75.20;;;;;;5057100;28;20032;-77
2021/12/06 02:21:56;;;;;;;0.00;0.00;;;3.90;75.10;;;;;;5056740;28;20050;-77
2021/12/06 02:24:22;;;;;;;0.00;0.00;;;3.90;74.90;;;;;;5057162;28;20132;-77
2021/12/06 02:26:48;;;;;;;0.00;0.00;;;3.90;74.90;;;;;;5057464;28;20108;-78
2021/12/06 02:29:14;;;;;;;0.00;0.00;;;3.90;74.90;;;;;;5057601;28;20025;-77
2021/12/06 02:31:39;;;;;;;0.00;0.00;;;3.90;74.80;;;;;;5057023;28;20044;-77
2021/12/06 02:34:06;;;;;;;0.00;0.00;;;3.90;75.00;;;;;;5055774;28;20116;-77
2021/12/06 02:36:33;;;;;;;0.00;0.00;;;3.90;75.30;;;;;;5055751;28;20036;-78
2021/12/06 02:38:59;;;;;;;0.00;0.00;;;3.90;75.30;;;;;;5057183;28;20465;-77
2021/12/06 02:41:26;;;;;;;0.00;0.00;;;3.90;75.20;;;;;;5056694;28;20032;-79
2021/12/06 02:43:53;;;;;;;0.00;0.00;;;4.00;75.30;;;;;;5055637;28;20033;-78
2021/12/06 02:46:20;;;;;;;0.05;0.05;;;4.00;75.20;;;;;;5057829;28;20029;-78
2021/12/06 02:48:46;;;;;;;0.10;0.10;;;3.90;75.00;;;;;;5056273;28;20112;-78
2021/12/06 02:51:14;;;;;;;0.00;0.00;;;3.90;75.20;;;;;;5056494;28;20529;-78
2021/12/06 02:53:41;;;;;;;0.05;0.05;;;3.90;75.30;;;;;;5055476;28;20362;-78
2021/12/06 02:56:28;;;;;;;0.00;0.00;;;4.00;75.50;;;;;;5055577;28;20033;-78
2021/12/06 02:58:56;;;;;;;0.00;0.00;;;4.10;75.30;;;;;;5056481;28;20048;-78
2021/12/06 03:01:38;;;;;;;0.00;0.00;;;4.10;75.40;;;;;;5055574;28;20538;-78
2021/12/06 03:04:04;;;;;;;0.00;0.00;;;4.20;75.30;;;;;;5056206;28;20044;-78
2021/12/06 03:06:31;;;;;;;0.00;0.00;;;4.30;75.20;;;;;;5056116;28;20494;-77
2021/12/06 03:09:09;;;;;;;0.00;0.00;;;4.40;75.20;;;;;;5055301;28;20029;-78
2021/12/06 03:11:39;;;;;;;0.00;0.00;;;4.40;74.90;;;;;;5056707;28;20027;-79
2021/12/06 03:14:08;;;;;;;0.00;0.00;;;4.40;74.70;;;;;;5054963;28;20112;-78
2021/12/06 03:16:34;;;;;;;0.00;0.00;;;4.40;74.40;;;;;;5055947;28;20029;-79
2021/12/06 03:19:00;;;;;;;0.00;0.00;;;4.40;74.40;;;;;;5055632;28;20075;-78
2021/12/06 03:21:26;;;;;;;0.00;0.00;;;4.40;74.70;;;;;;5055014;28;20033;-78
2021/12/06 03:23:55;;;;;;;0.00;0.00;;;4.40;74.70;;;;;;5055779;28;20435;-78
2021/12/06 03:26:21;;;;;;;0.00;0.00;;;4.30;74.90;;;;;;5054739;28;20468;-77
2021/12/06 03:28:47;;;;;;;0.00;0.00;;;4.30;74.80;;;;;;5055776;28;20036;-77
2021/12/06 03:31:14;;;;;;;0.10;0.10;;;4.30;74.80;;;;;;5055693;28;20078;-77
2021/12/06 03:33:43;;;;;;;0.00;0.00;;;4.30;74.80;;;;;;5054752;28;20059;-77
2021/12/06 03:36:10;;;;;;;0.00;0.00;;;4.30;75.00;;;;;;5056055;28;20024;-77
2021/12/06 03:38:37;;;;;;;0.00;0.00;;;4.30;74.90;;;;;;5055962;28;20056;-77
2021/12/06 03:41:09;;;;;;;0.00;0.00;;;4.20;74.80;;;;;;5056022;28;20465;-77
2021/12/06 03:43:36;;;;;;;0.00;0.00;;;4.20;75.10;;;;;;5055040;28;20060;-78
2021/12/06 03:46:02;;;;;;;0.00;0.00;;;4.20;75.00;;;;;;5055538;28;20024;-78
2021/12/06 03:48:28;;;;;;;0.00;0.00;;;4.10;75.10;;;;;;5054924;28;20032;-77
2021/12/06 03:50:55;;;;;;;0.00;0.00;;;4.10;75.40;;;;;;5056131;28;20099;-77
2021/12/06 03:53:20;;;;;;;0.10;0.10;;;4.20;75.60;;;;;;5056153;28;20033;-77
2021/12/06 03:55:46;;;;;;;0.00;0.00;;;4.30;75.40;;;;;;5056064;28;20373;-77
2021/12/06 03:58:12;;;;;;;0.00;0.00;;;4.20;75.30;;;;;;5055423;28;20491;-77
2021/12/06 04:00:38;;;;;;;0.00;0.00;;;4.20;75.20;;;;;;5055829;28;20362;-78
2021/12/06 04:03:04;;;;;;;0.00;0.00;;;4.20;75.30;;;;;;5054504;28;20032;-78
2021/12/06 04:05:32;;;;;;;0.00;0.00;;;4.20;75.50;;;;;;5055455;28;20052;-76
2021/12/06 04:07:57;;;;;;;0.00;0.00;;;4.20;75.60;;;;;;5055335;28;20065;-77
2021/12/06 04:10:26;;;;;;;0.00;0.00;;;4.20;75.40;;;;;;5053977;28;20055;-78
2021/12/06 04:12:55;;;;;;;0.00;0.00;;;4.20;75.50;;;;;;5055230;28;20032;-78
2021/12/06 04:15:21;;;;;;;0.00;0.00;;;4.20;75.40;;;;;;5054719;28;20053;-77
2021/12/06 04:17:50;;;;;;;0.00;0.00;;;4.20;75.50;;;;;;5054513;28;20373;-76
2021/12/06 04:20:16;;;;;;;0.00;0.00;;;4.20;75.50;;;;;;5053628;28;20116;-78
2021/12/06 04:22:42;;;;;;;0.00;0.00;;;4.20;75.50;;;;;;5054233;28;20052;-78
2021/12/06 04:25:12;;;;;;;0.00;0.00;;;4.30;75.50;;;;;;5054512;28;20469;-78
2021/12/06 04:27:39;;;;;;;0.00;0.00;;;4.20;75.60;;;;;;5053274;28;20032;-78
2021/12/06 04:30:07;;;;;;;0.00;0.00;;;4.20;75.60;;;;;;5036520;28;20025;-78
2021/12/06 04:32:33;;;;;;;0.00;0.00;;;4.30;75.60;;;;;;5054181;28;20103;-76
2021/12/06 04:34:59;;;;;;;0.00;0.00;;;4.30;75.70;;;;;;5054010;28;20082;-78
2021/12/06 04:37:25;;;;;;;0.00;0.00;;;4.30;75.80;;;;;;5054332;28;20067;-77
2021/12/06 04:39:51;;;;;;;0.00;0.00;;;4.40;76.10;;;;;;5054191;28;20454;-78
2021/12/06 04:42:20;;;;;;;0.00;0.00;;;4.40;75.90;;;;;;5053893;28;20025;-77
2021/12/06 04:44:46;;;;;;;0.00;0.00;;;4.50;75.80;;;;;;5053985;28;20411;-78
2021/12/06 04:47:12;;;;;;;0.00;0.00;;;4.50;75.80;;;;;;5053642;28;20029;-78
2021/12/06 04:49:38;;;;;;;0.00;0.00;;;4.50;75.50;;;;;;5053844;28;20519;-82
2021/12/06 04:52:08;;;;;;;0.00;0.00;;;4.50;75.60;;;;;;5053743;28;20473;-78
2021/12/06 04:54:39;;;;;;;0.00;0.00;;;4.40;75.50;;;;;;5052834;28;20534;-79
2021/12/06 04:57:28;;;;;;;0.00;0.00;;;4.50;75.70;;;;;;5054011;28;20055;-78
2021/12/06 05:00:05;;;;;;;0.00;0.00;;;4.40;76.20;;;;;;5052466;28;20057;-78
2021/12/06 05:02:35;;;;;;;0.00;0.00;;;4.40;75.90;;;;;;5052992;28;20032;-80
2021/12/06 05:05:27;;;;;;;0.00;0.00;;;4.30;76.00;;;;;;5053777;28;20025;-77
2021/12/06 05:07:59;;;;;;;0.00;0.00;;;4.30;76.30;;;;;;5052991;28;20035;-78
2021/12/06 05:10:25;;;;;;;0.00;0.00;;;4.30;76.50;;;;;;5053949;28;20025;-78
2021/12/06 05:12:51;;;;;;;0.00;0.00;;;4.30;76.50;;;;;;5054136;28;20470;-78
2021/12/06 05:15:17;;;;;;;0.00;0.00;;;4.30;76.60;;;;;;5054311;28;20021;-79
2021/12/06 05:17:44;;;;;;;0.00;0.00;;;4.30;76.60;;;;;;5053889;28;20073;-78
2021/12/06 05:20:11;;;;;;;0.00;0.00;;;4.30;76.40;;;;;;5037090;28;20037;-78
2021/12/06 05:22:37;;;;;;;0.00;0.00;;;4.30;77.00;;;;;;5054089;28;20083;-78
2021/12/06 05:25:03;;;;;;;0.00;0.00;;;4.30;76.90;;;;;;5052773;28;20025;-77
2021/12/06 05:27:30;;;;;;;0.00;0.00;;;4.30;76.90;;;;;;5052903;28;20040;-78
2021/12/06 05:30:00;;;;;;;0.00;0.00;;;4.20;76.90;;;;;;5052400;28;20116;-77
2021/12/06 05:32:30;;;;;;;0.00;0.00;;;4.20;77.00;;;;;;5054065;28;20075;-77
2021/12/06 05:35:02;;;;;;;0.10;0.10;;;4.20;77.40;;;;;;5052797;28;20055;-79
2021/12/06 05:37:29;;;;;;;0.00;0.00;;;4.20;77.20;;;;;;5052699;28;20029;-78
2021/12/06 05:39:55;;;;;;;0.00;0.00;;;4.20;77.20;;;;;;5053827;28;20032;-77
2021/12/06 05:42:22;;;;;;;0.03;0.03;;;4.20;77.40;;;;;;5057102;28;20051;-78
2021/12/06 05:44:50;;;;;;;0.08;0.08;;;4.30;77.60;;;;;;5058083;28;20028;-79
2021/12/06 05:47:17;;;;;;;0.00;0.00;;;4.30;77.50;;;;;;5057559;28;20043;-79
2021/12/06 05:49:43;;;;;;;0.00;0.00;;;4.30;77.70;;;;;;5057869;28;20037;-79
2021/12/06 05:52:09;;;;;;;0.00;0.00;;;4.40;77.70;;;;;;5057793;28;20037;-78
2021/12/06 05:54:36;;;;;;;0.00;0.00;;;4.40;77.60;;;;;;5057729;28;20033;-78
2021/12/06 05:57:03;;;;;;;0.00;0.00;;;4.40;78.00;;;;;;5056602;28;20032;-78
2021/12/06 05:59:29;;;;;;;0.00;0.00;;;4.50;78.30;;;;;;5057615;28;20396;-79
2021/12/06 06:01:54;;;;;;;0.00;0.00;;;4.50;78.10;;;;;;5058010;28;20021;-76
2021/12/06 06:04:21;;;;;;;0.00;0.00;;;4.60;77.90;;;;;;5057874;28;20025;-76
2021/12/06 06:06:49;;;;;;;0.00;0.00;;;4.60;77.80;;;;;;5057073;28;20083;-78
2021/12/06 06:09:15;;;;;;;0.00;0.00;;;4.60;77.60;;;;;;5057842;28;20032;-78
2021/12/06 06:11:41;;;;;;;0.00;0.00;;;4.60;78.00;;;;;;5056939;28;20465;-79
2021/12/06 06:14:07;;;;;;;0.00;0.00;;;4.60;77.90;;;;;;5055456;28;20174;-78
2021/12/06 06:16:36;;;;;;;0.00;0.00;;;4.60;77.80;;;;;;5056797;28;20104;-78
2021/12/06 06:19:04;;;;;;;0.05;0.05;;;4.70;77.90;;;;;;5057055;28;20413;-78
2021/12/06 06:21:30;;;;;;;0.00;0.00;;;4.70;77.80;;;;;;5056794;28;20104;-77
2021/12/06 06:23:56;;;;;;;0.00;0.00;;;4.70;77.90;;;;;;5055597;28;20087;-77
2021/12/06 06:26:22;;;;;;;0.00;0.00;;;4.80;77.70;;;;;;5055061;28;20150;-78
2021/12/06 06:28:48;;;;;;;0.00;0.00;;;4.80;78.10;;;;;;5056887;28;20043;-78
2021/12/06 06:31:15;;;;;;;0.00;0.00;;;4.90;77.90;;;;;;5055333;28;20379;-77
2021/12/06 06:33:41;;;;;;;0.00;0.00;;;4.90;77.90;;;;;;5056519;28;20017;-80
2021/12/06 06:36:07;;;;;;;0.00;0.00;;;4.90;77.60;;;;;;5055948;28;20100;-78
2021/12/06 06:38:33;;;;;;;0.00;0.00;;;4.90;77.30;;;;;;5056232;28;20451;-79
2021/12/06 06:40:59;;;;;;;0.00;0.00;;;4.90;77.40;;;;;;5056359;28;20025;-77
2021/12/06 06:43:25;;;;;;;0.00;0.00;;;4.90;77.70;;;;;;5055937;28;20112;-78
2021/12/06 06:45:51;;;;;;;0.00;0.00;;;4.90;77.80;;;;;;5056091;28;20017;-79
2021/12/06 06:48:17;;;;;;;0.17;0.05;;;5.00;77.60;;;;;;5054570;28;20032;-78
2021/12/06 06:50:43;;;;;;;0.00;0.00;;;4.90;77.60;;;;;;5055858;28;20037;-80
2021/12/06 06:53:08;;;;;;;0.10;0.00;;;4.90;77.90;;;;;;5055414;28;20358;-79
2021/12/06 06:55:34;;;;;;;0.00;0.00;;;4.90;77.80;;;;;;5056234;28;20032;-80
2021/12/06 06:58:00;;;;;;;0.00;0.00;;;4.90;77.90;;;;;;5055128;28;20199;-78
2021/12/06 07:00:35;;;;;;;0.00;0.00;;;5.00;77.80;;;;;;5056804;28;20041;-78
2021/12/06 07:03:02;;;;;;;0.00;0.00;;;4.90;77.70;;;;;;5056354;28;20035;-78
2021/12/06 07:05:29;;;;;;;0.00;0.00;;;5.00;77.80;;;;;;5055302;28;20041;-79
2021/12/06 07:07:56;;;;;;;0.10;0.10;;;5.00;77.80;;;;;;5055898;28;20100;-79
2021/12/06 07:10:23;;;;;;;0.00;0.00;;;5.10;77.80;;;;;;5054694;28;20040;-77
2021/12/06 07:12:51;;;;;;;0.00;0.00;;;5.10;77.70;;;;;;5055674;28;20021;-77
2021/12/06 07:15:24;;;;;;;0.00;0.00;;;5.20;77.60;;;;;;5054978;28;20376;-79
2021/12/06 07:17:51;;;;;;;0.10;0.10;;;5.20;77.40;;;;;;5055593;28;20429;-79
2021/12/06 07:20:19;;;;;;;0.00;0.00;;;5.10;77.20;;;;;;5050192;28;20076;-79
2021/12/06 07:22:47;;;;;;;0.10;0.00;;;5.20;77.40;;;;;;5034964;28;20068;-80
2021/12/06 07:25:14;;;;;;;0.00;0.00;;;5.20;77.50;;;;;;5035688;28;20086;-79
2021/12/06 07:27:41;;;;;;;0.00;0.00;;;5.20;77.50;;;;;;5041257;28;20488;-78
2021/12/06 07:30:09;;;;;;;0.05;0.05;;;5.20;77.30;;;;;;5054289;28;20032;-77
2021/12/06 07:32:35;;;;;;;0.00;0.00;;;5.20;77.30;;;;;;5054474;28;20036;-79
2021/12/06 07:35:02;;;;;;;0.00;0.00;;;5.20;77.20;;;;;;5054330;28;20110;-78
2021/12/06 07:37:41;;;;;;;0.00;0.00;;;5.20;77.40;;;;;;5053812;28;20025;-78
2021/12/06 07:40:10;;;;;;;0.00;0.00;;;5.20;77.90;;;;;;5054526;28;20385;-79
2021/12/06 07:42:36;;;;;;;0.10;0.10;;;5.30;78.00;;;;;;5054497;28;20059;-79
2021/12/06 07:45:07;;;;;;;0.00;0.00;;;5.30;77.70;;;;;;5054115;28;20029;-78
2021/12/06 07:47:37;;;;;;;0.00;0.00;;;5.30;77.60;;;;;;5055517;28;20509;-78
2021/12/06 07:50:04;;;;;;;0.00;0.00;;;5.30;77.50;;;;;;5053866;28;20021;-77
2021/12/06 07:52:30;;;;;;;0.00;0.00;;;5.30;77.50;;;;;;5055299;28;20445;-79
2021/12/06 07:54:59;;;;;;;0.00;0.00;;;5.40;77.90;;;;;;5054354;28;20032;-78
2021/12/06 07:57:26;;;;;;;0.00;0.00;;;5.40;77.80;;;;;;5054268;28;20029;-78
2021/12/06 07:59:51;;;;;;;0.00;0.00;;;5.50;77.70;;;;;;5053006;28;20057;-77
2021/12/06 08:02:22;;;;;;;0.00;0.00;;;5.50;77.80;;;;;;5053729;28;20033;-78
2021/12/06 08:04:59;;;;;;;0.00;0.00;;;5.50;77.50;;;;;;5040453;28;20527;-78
2021/12/06 08:07:25;;;;;;;0.00;0.00;;;5.60;77.50;;;;;;5052178;28;20025;-77
2021/12/06 08:09:51;;;;;;;0.00;0.00;;;5.60;77.30;;;;;;5053487;28;20098;-78
2021/12/06 08:12:17;;;;;;;0.10;0.08;;;5.60;78.50;;;;;;5052395;28;20044;-77
2021/12/06 08:14:42;;;;;;;0.00;0.00;;;5.60;77.90;;;;;;5052353;28;20396;-76
2021/12/06 08:17:08;;;;;;;0.00;0.00;;;5.60;78.00;;;;;;5053865;28;20108;-78
2021/12/06 08:19:34;;;;;;;0.00;0.00;;;5.70;77.90;;;;;;5054090;28;20099;-78
2021/12/06 08:22:01;;;;;;;0.00;0.00;;;5.70;77.70;;;;;;5053414;28;20025;-78
2021/12/06 08:24:27;;;;;;;0.05;0.00;;;5.80;77.80;;;;;;5053623;28;20033;-78
2021/12/06 08:26:53;;;;;;;0.00;0.00;;;5.80;77.60;;;;;;5053343;28;20052;-80
2021/12/06 08:29:19;;;;;;;0.00;0.00;;;5.90;77.80;;;;;;5053448;28;20017;-78
2021/12/06 08:31:45;;;;;;;0.00;0.00;;;6.00;77.50;;;;;;5053602;28;20484;-76
2021/12/06 08:34:13;;;;;;;0.00;0.00;;;6.00;77.20;;;;;;5053524;28;20151;-79
2021/12/06 08:36:43;;;;;;;0.00;0.00;;;6.00;77.30;;;;;;5053283;28;20025;-77
2021/12/06 08:39:11;;;;;;;0.00;0.00;;;6.00;77.20;;;;;;5052157;28;20032;-79
2021/12/06 08:41:37;;;;;;;0.00;0.00;;;6.00;77.00;;;;;;5052843;28;20040;-78
2021/12/06 08:44:03;;;;;;;0.00;0.00;;;6.00;77.20;;;;;;5052270;28;20390;-78
2021/12/06 08:46:37;;;;;;;0.03;0.00;;;6.00;77.30;;;;;;5053659;28;20484;-78
2021/12/06 08:49:06;;;;;;;0.00;0.00;;;6.10;77.50;;;;;;5053365;28;20429;-78
2021/12/06 08:51:35;;;;;;;0.00;0.00;;;6.20;77.10;;;;;;5053254;28;20280;-79
2021/12/06 08:54:05;;;;;;;0.00;0.00;;;6.20;76.90;;;;;;5053484;28;20544;-80
2021/12/06 08:56:32;;;;;;;0.00;0.00;;;6.20;76.70;;;;;;5048874;28;20488;-79
2021/12/06 08:59:01;;;;;;;0.00;0.00;;;6.20;76.90;;;;;;5051908;28;20048;-78
2021/12/06 09:01:28;;;;;;;0.10;0.10;;;6.20;76.80;;;;;;5052508;28;20057;-79
2021/12/06 09:03:54;;;;;;;0.00;0.00;;;6.20;77.00;;;;;;5051290;28;20025;-80
2021/12/06 09:06:21;;;;;;;0.00;0.00;;;6.30;77.10;;;;;;5052822;28;20469;-79
2021/12/06 09:08:47;;;;;;;0.10;0.10;;;6.30;77.10;;;;;;5043297;28;20385;-79
2021/12/06 09:11:14;;;;;;;0.10;0.10;;;6.40;77.00;;;;;;5051030;28;20025;-79
2021/12/06 09:13:41;;;;;;;0.00;0.00;;;6.40;76.70;;;;;;5052354;28;20473;-79
2021/12/06 09:16:09;;;;;;;0.10;0.10;;;6.40;76.40;;;;;;5055564;28;20021;-79
2021/12/06 09:18:38;;;;;;;0.10;0.00;;;6.40;76.40;;;;;;5050764;28;20048;-78
2021/12/06 09:21:10;;;;;;;0.00;0.00;;;6.40;76.30;;;;;;5056441;28;20031;-79
2021/12/06 09:23:37;;;;;;;0.10;0.10;;;6.40;76.80;;;;;;5052923;28;20422;-79
2021/12/06 09:26:04;;;;;;;0.00;0.00;;;6.50;76.80;;;;;;5057270;28;20021;-79
2021/12/06 09:28:32;;;;;;;0.00;0.00;;;6.50;76.70;;;;;;5057949;28;20033;-79
2021/12/06 09:31:01;;;;;;;0.00;0.00;;;6.60;76.70;;;;;;5047335;28;20021;-77
2021/12/06 09:33:28;;;;;;;0.00;0.00;;;6.60;76.50;;;;;;5055503;28;20423;-78
2021/12/06 09:35:58;;;;;;;0.00;0.00;;;6.60;76.30;;;;;;5056311;28;20021;-80
2021/12/06 09:38:32;;;;;;;0.05;0.05;;;6.60;76.10;;;;;;5071780;28;20144;-78
2021/12/06 09:40:58;;;;;;;0.00;0.00;;;6.60;76.60;;;;;;5055642;28;20444;-78
2021/12/06 09:43:25;;;;;;;0.00;0.00;;;6.70;76.60;;;;;;5057067;28;20049;-78
2021/12/06 09:45:53;;;;;;;0.00;0.00;;;6.70;76.40;;;;;;5056220;28;20415;-79
2021/12/06 09:48:20;;;;;;;0.00;0.00;;;6.80;76.40;;;;;;5056507;28;20407;-78
2021/12/06 09:50:51;;;;;;;0.00;0.00;;;6.80;76.00;;;;;;5056426;28;20062;-79
2021/12/06 09:53:20;;;;;;;0.00;0.00;;;6.90;76.10;;;;;;5053452;28;20029;-78
2021/12/06 09:55:48;;;;;;;0.00;0.00;;;6.90;75.80;;;;;;5056362;28;20021;-79
2021/12/06 09:58:15;;;;;;;0.00;0.00;;;6.90;75.70;;;;;;5055808;28;20025;-78
2021/12/06 10:00:46;;;;;;;0.00;0.00;;;7.00;75.60;;;;;;5055989;28;20107;-78
2021/12/06 10:03:15;;;;;;;0.00;0.00;;;7.00;75.50;;;;;;5043017;28;20561;-79
2021/12/06 10:05:42;;;;;;;0.00;0.00;;;7.10;75.50;;;;;;5054575;28;20027;-77
2021/12/06 10:08:08;;;;;;;0.00;0.00;;;7.10;75.30;;;;;;5055430;28;20018;-77
2021/12/06 10:10:35;;;;;;;0.55;0.10;;;7.10;75.50;;;;;;5056244;28;20035;-78
2021/12/06 10:13:01;;;;;;;0.00;0.00;;;7.10;75.20;;;;;;5054556;28;20105;-80
2021/12/06 10:15:29;;;;;;;0.00;0.00;;;7.10;75.20;;;;;;5056562;28;20100;-81
2021/12/06 10:18:06;;;;;;;0.00;0.00;;;7.00;75.30;;;;;;5054741;28;20461;-77
2021/12/06 10:20:32;;;;;;;0.10;0.10;;;7.10;75.40;;;;;;5053738;28;20033;-79
2021/12/06 10:22:59;;;;;;;0.00;0.00;;;7.10;75.40;;;;;;5054890;28;20017;-79
2021/12/06 10:25:37;;;;;;;0.00;0.00;;;7.10;75.20;;;;;;5046849;28;20413;-79
2021/12/06 10:28:05;;;;;;;0.00;0.00;;;7.10;75.20;;;;;;5048744;28;20049;-78
2021/12/06 10:30:35;;;;;;;0.00;0.00;;;7.10;75.10;;;;;;5043178;28;20022;-78
2021/12/06 10:33:12;;;;;;;0.00;0.00;;;7.00;75.20;;;;;;5055234;28;20028;-79
2021/12/06 10:35:43;;;;;;;0.00;0.00;;;7.00;75.30;;;;;;5054776;28;20079;-78
2021/12/06 10:38:17;;;;;;;0.00;0.00;;;7.00;75.50;;;;;;5053429;28;20028;-79
2021/12/06 10:40:43;;;;;;;0.00;0.00;;;7.00;75.40;;;;;;5046570;28;20037;-78
2021/12/06 10:43:12;;;;;;;0.00;0.00;;;7.00;75.70;;;;;;5053190;28;20029;-79
2021/12/06 10:45:50;;;;;;;0.00;0.00;;;7.00;75.60;;;;;;5056305;28;20033;-79
2021/12/06 10:48:26;;;;;;;0.00;0.00;;;7.00;75.50;;;;;;5052421;28;20021;-76
2021/12/06 10:50:52;;;;;;;0.00;0.00;;;7.00;75.30;;;;;;5054627;28;20029;-79
2021/12/06 10:53:25;;;;;;;0.00;0.00;;;6.90;75.40;;;;;;5055378;28;20104;-79
2021/12/06 10:55:54;;;;;;;0.03;0.03;;;6.80;76.00;;;;;;5056419;28;20086;-79
2021/12/06 10:58:24;;;;;;;0.00;0.00;;;6.90;76.00;;;;;;5055695;28;20056;-78
2021/12/06 11:01:05;;;;;;;0.00;0.00;;;6.90;76.10;;;;;;5055536;28;20059;-78
2021/12/06 11:03:41;;;;;;;0.00;0.00;;;6.90;75.90;;;;;;5029317;28;20021;-78
2021/12/06 11:06:12;;;;;;;0.00;0.00;;;6.80;76.10;;;;;;5055675;28;20036;-78
2021/12/06 11:08:40;;;;;;;0.00;0.00;;;6.90;76.20;;;;;;5055686;28;20025;-78
2021/12/06 11:11:14;;;;;;;0.00;0.00;;;6.90;76.50;;;;;;5055565;28;20357;-78
2021/12/06 11:13:46;;;;;;;0.00;0.00;;;7.00;76.20;;;;;;5052332;28;20156;-79
2021/12/06 11:16:16;;;;;;;0.00;0.00;;;7.00;75.90;;;;;;5054813;28;20439;-79
2021/12/06 11:18:45;;;;;;;0.00;0.00;;;7.00;76.10;;;;;;5043863;28;20041;-78
2021/12/06 11:21:20;;;;;;;0.00;0.00;;;7.00;76.00;;;;;;5054832;28;20033;-78
2021/12/06 11:24:09;;;;;;;0.00;0.00;;;7.00;76.10;;;;;;5054365;28;20029;-78
2021/12/06 11:26:51;;;;;;;0.00;0.00;;;7.00;75.80;;;;;;5054439;28;20078;-77
2021/12/06 11:29:21;;;;;;;0.00;0.00;;;7.00;75.30;;;;;;5052976;28;20358;-79
2021/12/06 11:32:12;;;;;;;0.00;0.00;;;7.00;75.50;;;;;;5054473;28;20024;-80
2021/12/06 11:34:44;;;;;;;0.00;0.00;;;6.90;75.80;;;;;;5054098;28;20036;-79
2021/12/06 11:37:26;;;;;;;0.00;0.00;;;7.00;75.90;;;;;;5051465;28;20385;-78
2021/12/06 11:40:13;;;;;;;0.00;0.00;;;7.00;76.00;;;;;;5053714;28;20055;-78
2021/12/06 11:43:03;;;;;;;0.00;0.00;;;7.00;76.00;;;;;;5047738;28;20080;-79
2021/12/06 11:45:40;;;;;;;0.00;0.00;;;7.00;75.80;;;;;;5054885;28;20021;-79
2021/12/06 11:48:09;;;;;;;0.00;0.00;;;7.00;76.00;;;;;;5055019;28;20033;-79
2021/12/06 11:50:41;;;;;;;0.00;0.00;;;7.10;76.20;;;;;;5051688;28;20033;-79
2021/12/06 11:53:08;;;;;;;0.00;0.00;;;7.20;76.20;;;;;;5052161;28;20020;-78
2021/12/06 11:55:36;;;;;;;0.00;0.00;;;7.20;76.00;;;;;;5055363;28;20025;-77
2021/12/06 11:58:03;;;;;;;0.00;0.00;;;7.30;75.80;;;;;;5042705;28;20253;-78
2021/12/06 12:00:32;;;;;;;0.00;0.00;;;7.30;75.70;;;;;;5053516;28;20037;-77
2021/12/06 12:03:02;;;;;;;0.00;0.00;;;7.40;75.90;;;;;;5048511;28;20021;-80
2021/12/06 12:05:33;;;;;;;0.00;0.00;;;7.40;75.50;;;;;;5053605;28;20033;-78
2021/12/06 12:07:58;;;;;;;0.00;0.00;;;7.40;75.50;;;;;;5053401;28;20021;-79
2021/12/06 12:51:09;;;;;;;0.00;0.00;;;7.30;75.70;;;;;;5033111;28;20056;-80
2021/12/06 12:53:54;;;;;;;0.00;0.00;;;7.30;75.30;;;;;;5027015;28;20028;-80
2021/12/06 12:56:26;;;;;;;0.00;0.00;;;7.30;75.70;;;;;;5021363;28;20022;-82
2021/12/06 12:58:53;;;;;;;0.00;0.00;;;7.30;76.20;;;;;;5020066;28;20058;-80
2021/12/06 13:01:24;;;;;;;0.00;0.00;;;7.30;76.10;;;;;;5021978;28;20042;-80
2021/12/06 13:04:00;;;;;;;0.00;0.00;;;7.30;75.90;;;;;;5021709;28;20100;-81
2021/12/06 13:06:37;;;;;;;0.00;0.00;;;7.30;76.40;;;;;;5019850;28;20121;-80
2021/12/06 13:09:06;;;;;;;0.00;0.00;;;7.30;76.30;;;;;;5024723;28;20056;-79
2021/12/06 13:11:47;;;;;;;0.00;0.00;;;7.30;76.60;;;;;;5023259;28;20115;-82
2021/12/06 13:14:34;;;;;;;0.00;0.00;;;7.30;76.50;;;;;;5021404;28;20021;-80
2021/12/06 13:17:04;;;;;;;0.00;0.00;;;7.40;76.30;;;;;;5024331;28;20103;-80
2021/12/06 13:20:07;;;;;;;0.00;0.00;;;7.40;76.20;;;;;;5020959;28;20390;-78
2021/12/06 13:22:44;;;;;;;0.00;0.00;;;7.40;76.10;;;;;;5017268;28;20497;-80
2021/12/06 13:25:11;;;;;;;0.00;0.00;;;7.40;75.90;;;;;;5012279;28;20026;-80
2021/12/06 13:28:05;;;;;;;0.00;0.00;;;7.40;76.00;;;;;;5014063;28;20030;-79
2021/12/06 13:30:38;;;;;;;0.00;0.00;;;7.30;76.20;;;;;;5021961;28;20151;-80
2021/12/06 13:33:06;;;;;;;0.00;0.00;;;7.30;76.50;;;;;;5027984;28;20378;-80
2021/12/06 13:35:53;;;;;;;0.00;0.00;;;7.30;76.40;;;;;;5022936;28;20029;-80
2021/12/06 13:38:22;;;;;;;0.00;0.00;;;7.30;76.80;;;;;;5014036;28;20088;-80
2021/12/06 13:41:11;;;;;;;0.00;0.00;;;7.30;76.80;;;;;;5013833;28;20120;-80
2021/12/06 13:43:38;;;;;;;0.00;0.00;;;7.40;76.70;;;;;;5013717;28;20470;-79
2021/12/06 13:46:19;;;;;;;0.00;0.00;;;7.30;76.60;;;;;;5012814;28;20030;-81
2021/12/06 13:49:00;;;;;;;0.00;0.00;;;7.30;76.50;;;;;;5031414;28;20026;-80
2021/12/06 13:51:48;;;;;;;0.00;0.00;;;7.30;76.90;;;;;;5031707;28;20113;-78
2021/12/06 13:54:14;;;;;;;0.00;0.00;;;7.30;76.90;;;;;;5029843;28;20017;-79
2021/12/06 13:56:43;;;;;;;0.00;0.00;;;7.30;77.00;;;;;;5032294;28;20406;-80
2021/12/06 13:59:10;;;;;;;0.00;0.00;;;7.20;76.80;;;;;;5032707;28;20045;-80
2021/12/06 14:01:38;;;;;;;0.00;0.00;;;7.20;76.90;;;;;;5015969;28;20053;-79
2021/12/06 14:04:08;;;;;;;0.00;0.00;;;7.20;77.20;;;;;;5016940;28;20489;-81
2021/12/06 14:06:56;;;;;;;0.00;0.00;;;7.20;77.70;;;;;;5034344;28;20132;-81